14. August 2022

Uhrzeit Code Wetter Temp. Sichtweite Wolkendecke Wind METAR/SPECI
01:55
V
20 °C 10 km+ - 080° 080° 3 kt METAR EHGG 132355Z AUTO 08003KT 9999 NCD 20/15 Q1014
01:25
V
20 °C 10 km+ - 090° 090° 4 kt METAR EHGG 132325Z AUTO 09004KT 9999 NCD 20/15 Q1014
00:55
V
20 °C 10 km+ - 080° 080° 4 kt METAR EHGG 132255Z AUTO 08004KT 9999 NCD 20/15 Q1014
00:25
V
21 °C 10 km+ - 080° 080° 4 kt METAR EHGG 132225Z AUTO 08004KT 050V110 9999 NCD 21/15 Q1014

13. August 2022

Uhrzeit Code Wetter Temp. Sichtweite Wolkendecke Wind METAR/SPECI
23:55
V
21 °C 10 km+ - 080° 080° 5 kt METAR EHGG 132155Z AUTO 08005KT 040V120 9999 NCD 21/14 Q1014 NOSIG
23:25
V
21 °C 10 km+ - 060° 060° 6 kt METAR EHGG 132125Z AUTO 06006KT 9999 NSC 21/14 Q1014 NOSIG
22:55
V
22 °C 10 km+ - 060° 060° 7 kt METAR EHGG 132055Z AUTO 06007KT 9999 NSC 22/14 Q1014 NOSIG
22:25
V
23 °C 10 km+ - 050° 050° 6 kt METAR EHGG 132025Z AUTO 05006KT 9999 NSC 23/14 Q1014 NOSIG
21:55
V
24 °C 10 km+ - 050° 050° 6 kt METAR EHGG 131955Z AUTO 05006KT 9999 NSC 24/14 Q1014 NOSIG
21:25
V
23 °C 10 km+ - 060° 060° 7 kt METAR EHGG 131925Z AUTO 06007KT 9999 NCD 23/15 Q1014 NOSIG
20:55
V
26 °C 10 km+ - 060° 060° 9 kt METAR EHGG 131855Z AUTO 06009KT 9999 NSC 26/14 Q1014 NOSIG
20:25
V
27 °C 10 km+ - 060° 060° 7 kt METAR EHGG 131825Z AUTO 06007KT 030V090 9999 NSC 27/14 Q1014 NOSIG
19:55
V
28 °C 10 km+ - 070° 070° 7 kt METAR EHGG 131755Z AUTO 07007KT 030V100 9999 NCD 28/13 Q1014 NOSIG
19:25
V
28 °C 10 km+ - 070° 070° 7 kt METAR EHGG 131725Z AUTO 07007KT 040V100 9999 NSC 28/13 Q1014 NOSIG
18:55
V
28 °C 10 km+ - 060° 060° 8 kt METAR EHGG 131655Z AUTO 06008KT 030V110 9999 NSC 28/12 Q1014 NOSIG
18:25
V
30 °C 10 km+ - 080° 080° 7 kt METAR EHGG 131625Z AUTO 08007KT 020V120 9999 NSC 30/11 Q1015 NOSIG
17:55
V
31 °C 10 km+ - 100° 100° 7 kt METAR EHGG 131555Z AUTO 10007KT 030V150 9999 NSC 31/11 Q1015 NOSIG
17:25
V
31 °C 10 km+ - 130° 130° 5 kt METAR EHGG 131525Z AUTO 13005KT 040V210 9999 NCD 31/10 Q1015 NOSIG
16:55
V
31 °C 10 km+ - 090° 090° 6 kt METAR EHGG 131455Z AUTO 09006KT 030V150 9999 NSC 31/11 Q1016 NOSIG
16:25
V
31 °C 10 km+ - 080° 080° 9 kt METAR EHGG 131425Z AUTO 08009KT 020V140 9999 NSC 31/10 Q1016 NOSIG
15:55
V
30 °C 10 km+ - 080° 080° 8 kt METAR EHGG 131355Z AUTO 08008KT 040V120 9999 NSC 30/09 Q1016 NOSIG
15:25
V
31 °C 10 km+ - 110° 110° 6 kt METAR EHGG 131325Z AUTO 11006KT 030V170 9999 NSC 31/10 Q1016 NOSIG
14:55
V
30 °C 10 km+ - 110° 110° 9 kt METAR EHGG 131255Z AUTO 11009KT 040V210 9999 NCD 30/09 Q1017 NOSIG
14:25
V
30 °C 10 km+ - 090° 090° 9 kt METAR EHGG 131225Z AUTO 09009KT 020V140 9999 NCD 30/09 Q1017 NOSIG
13:55
V
30 °C 10 km+ - 120° 120° 9 kt METAR EHGG 131155Z AUTO 12009KT 040V190 9999 NCD 30/09 Q1017 NOSIG
13:25
V
30 °C 10 km+ - 110° 110° 7 kt METAR EHGG 131125Z AUTO 11007KT 050V170 9999 NCD 30/09 Q1017 NOSIG
12:55
V
29 °C 10 km+ - 120° 120° 9 kt METAR EHGG 131055Z AUTO 12009KT 070V170 9999 NCD 29/09 Q1018 NOSIG
12:25
V
29 °C 10 km+ - 120° 120° 8 kt METAR EHGG 131025Z AUTO 12008KT 060V180 9999 NCD 29/10 Q1018 NOSIG
11:55
V
29 °C 10 km+ - 100° 100° 7 kt METAR EHGG 130955Z AUTO 10007KT 050V150 9999 NCD 29/10 Q1018 NOSIG
11:25
V
28 °C 10 km+ - 110° 110° 6 kt METAR EHGG 130925Z AUTO 11006KT 070V150 9999 NCD 28/12 Q1018 NOSIG
10:55
V
27 °C 10 km+ - 100° 100° 5 kt METAR EHGG 130855Z AUTO 10005KT 030V150 9999 NCD 27/12 Q1018 NOSIG
10:25
V
26 °C 10 km+ - 100° 100° 4 kt METAR EHGG 130825Z AUTO 10004KT 060V170 9999 NCD 26/12 Q1018 NOSIG
09:55
V
24 °C 10 km+ - 100° 100° 6 kt METAR EHGG 130755Z AUTO 10006KT 050V130 9999 NCD 24/12 Q1018 NOSIG
09:25
V
23 °C 10 km+ - 100° 100° 5 kt METAR EHGG 130725Z AUTO 10005KT 080V140 9999 NCD 23/12 Q1018 NOSIG
08:55
V
21 °C 10 km+ - 100° 100° 5 kt METAR EHGG 130655Z AUTO 10005KT 060V130 9999 NCD 21/12 Q1018 NOSIG
08:25
V
20 °C 10 km+ - 100° 100° 5 kt METAR EHGG 130625Z AUTO 10005KT 070V130 9999 NCD 20/12 Q1018 NOSIG
07:55
V
19 °C 10 km+ - 100° 100° 4 kt METAR EHGG 130555Z AUTO 10004KT 060V130 9999 NCD 19/12 Q1018 NOSIG
07:25
V
18 °C 10 km+ - 100° 100° 4 kt METAR EHGG 130525Z AUTO 10004KT 9999 NCD 18/12 Q1018 NOSIG
06:55
V
17 °C 10 km+ - 100° 100° 4 kt METAR EHGG 130455Z AUTO 10004KT 9999 NCD 17/12 Q1018 NOSIG
06:25
V
17 °C 10 km+ - 100° 100° 6 kt METAR EHGG 130425Z AUTO 10006KT 9999 NCD 17/12 Q1018 NOSIG
05:55
V
16 °C 10 km+ - 100° 100° 4 kt METAR EHGG 130355Z AUTO 10004KT 9999 NCD 16/13 Q1018
05:25
V
14 °C 10 km+ - 100° 100° 4 kt METAR EHGG 130325Z AUTO 10004KT 9999 NCD 14/13 Q1018
04:55
V
14 °C 10 km+ - 100° 100° 3 kt METAR EHGG 130255Z AUTO 10003KT 9999 NCD 14/13 Q1018
04:25
V
14 °C 10 km+ - 100° 100° 4 kt METAR EHGG 130225Z AUTO 10004KT 9999 NCD 14/13 Q1018
03:55
V
15 °C 10 km+ - 090° 090° 4 kt METAR EHGG 130155Z AUTO 09004KT 9999 NCD 15/13 Q1018
03:25
V
15 °C 10 km+ - 090° 090° 4 kt METAR EHGG 130125Z AUTO 09004KT 9999 NCD 15/13 Q1018
02:55
V
15 °C 10 km+ - 080° 080° 4 kt METAR EHGG 130055Z AUTO 08004KT 9999 NSC 15/13 Q1018
02:25
V
16 °C 10 km+ - 080° 080° 4 kt METAR EHGG 130025Z AUTO 08004KT 9999 NCD 16/13 Q1018
01:55
V
17 °C 10 km+ - 080° 080° 4 kt METAR EHGG 122355Z AUTO 08004KT 9999 NCD 17/14 Q1018
01:25
V
16 °C 10 km+ - 060° 060° 3 kt METAR EHGG 122325Z AUTO 06003KT 9999 NCD 16/14 Q1018
00:55
V
17 °C 10 km+ - 060° 060° 4 kt METAR EHGG 122255Z AUTO 06004KT 9999 NCD 17/14 Q1018
00:25
V
18 °C 10 km+ - 070° 070° 4 kt METAR EHGG 122225Z AUTO 07004KT 9999 NCD 18/14 Q1018

12. August 2022

Uhrzeit Code Wetter Temp. Sichtweite Wolkendecke Wind METAR/SPECI
23:55
V
19 °C 10 km+ - 060° 060° 5 kt METAR EHGG 122155Z AUTO 06005KT 9999 NCD 19/14 Q1018
23:25
V
19 °C 10 km+ - 060° 060° 4 kt METAR EHGG 122125Z AUTO 06004KT 9999 NCD 19/14 Q1018
22:55
V
20 °C 10 km+ - 050° 050° 4 kt METAR EHGG 122055Z AUTO 05004KT 9999 NCD 20/15 Q1018 NOSIG
22:25
V
21 °C 10 km+ - 040° 040° 5 kt METAR EHGG 122025Z AUTO 04005KT 9999 NCD 21/15 Q1018 NOSIG
21:55
V
23 °C 10 km+ - 040° 040° 5 kt METAR EHGG 121955Z AUTO 04005KT 9999 NCD 23/16 Q1018 NOSIG
21:25
V
23 °C 10 km+ - 050° 050° 6 kt METAR EHGG 121925Z AUTO 05006KT 9999 NCD 23/16 Q1018 NOSIG
20:55
V
25 °C 10 km+ - 040° 040° 7 kt METAR EHGG 121855Z AUTO 04007KT 9999 NCD 25/16 Q1018 NOSIG
20:25
V
27 °C 10 km+ - 030° 030° 7 kt METAR EHGG 121825Z AUTO 03007KT 360V060 9999 NCD 27/16 Q1017 NOSIG
19:55
V
28 °C 10 km+ - 040° 040° 6 kt METAR EHGG 121755Z AUTO 04006KT 9999 NCD 28/14 Q1017 NOSIG
19:25
V
29 °C 10 km+ - 050° 050° 8 kt METAR EHGG 121725Z AUTO 05008KT 9999 NCD 29/11 Q1017 NOSIG
18:55
V
30 °C 10 km+ - 070° 070° 8 kt METAR EHGG 121655Z AUTO 07008KT 040V100 9999 NCD 30/11 Q1017 NOSIG
18:25
V
30 °C 10 km+ - 050° 050° 9 kt METAR EHGG 121625Z AUTO 05009KT 350V070 9999 NCD 30/11 Q1018 NOSIG
17:55
V
30 °C 10 km+ - 050° 050° 10 kt METAR EHGG 121555Z AUTO 05010KT 9999 NCD 30/11 Q1018 NOSIG
17:25
V
31 °C 10 km+ - 050° 050° 11 kt METAR EHGG 121525Z AUTO 05011KT 010V080 9999 NCD 31/10 Q1018 NOSIG
16:55
V
30 °C 10 km+ - 040° 040° 10 kt METAR EHGG 121455Z AUTO 04010KT 010V080 9999 NCD 30/10 Q1018 NOSIG
16:25
V
31 °C 10 km+ - 070° 070° 7 kt METAR EHGG 121425Z AUTO 07007KT 010V120 9999 NCD 31/10 Q1018 NOSIG
15:55
V
31 °C 10 km+ - 070° 070° 7 kt METAR EHGG 121355Z AUTO 07007KT 010V130 9999 NCD 31/09 Q1019 NOSIG
15:25
V
31 °C 10 km+ - 070° 070° 7 kt METAR EHGG 121325Z AUTO 07007KT 010V140 9999 NCD 31/10 Q1019 NOSIG
14:55
V
31 °C 10 km+ - 060° 060° 8 kt METAR EHGG 121255Z AUTO 06008KT 020V110 9999 NCD 31/10 Q1019 NOSIG
14:25
V
30 °C 10 km+ - 060° 060° 8 kt METAR EHGG 121225Z AUTO 06008KT 010V110 9999 NCD 30/09 Q1019 NOSIG
13:55
V
30 °C 10 km+ - 050° 050° 8 kt METAR EHGG 121155Z AUTO 05008KT 010V110 9999 NCD 30/09 Q1019 NOSIG
13:25
V
30 °C 10 km+ - 080° 080° 7 kt METAR EHGG 121125Z AUTO 08007KT 020V140 9999 NCD 30/10 Q1020 NOSIG
12:55
V
29 °C 10 km+ - 080° 080° 8 kt METAR EHGG 121055Z AUTO 08008KT 050V130 9999 NCD 29/10 Q1020 NOSIG
12:25
V
30 °C 10 km+ - 090° 090° 8 kt METAR EHGG 121025Z AUTO 09008KT 010V130 9999 NCD 30/11 Q1020 NOSIG
11:55
V
28 °C 10 km+ - 070° 070° 7 kt METAR EHGG 120955Z AUTO 07007KT 020V140 9999 NCD 28/12 Q1020 NOSIG
11:25
V
27 °C 10 km+ - 090° 090° 6 kt METAR EHGG 120925Z AUTO 09006KT 360V130 9999 NCD 27/14 Q1021 NOSIG
10:55
V
26 °C 10 km+ - 080° 080° 6 kt METAR EHGG 120855Z AUTO 08006KT 030V120 9999 NCD 26/14 Q1021 NOSIG
10:25
V
24 °C 10 km+ - 080° 080° 6 kt METAR EHGG 120825Z AUTO 08006KT 040V120 9999 NCD 24/14 Q1021 NOSIG
09:55
V
23 °C 10 km+ - 080° 080° 4 kt METAR EHGG 120755Z AUTO 08004KT 040V130 9999 NCD 23/15 Q1021 NOSIG
09:25
V
22 °C 10 km+ - 070° 070° 4 kt METAR EHGG 120725Z AUTO 07004KT 040V110 9999 NCD 22/15 Q1020 NOSIG
08:55
V
21 °C 10 km+ - 070° 070° 6 kt METAR EHGG 120655Z AUTO 07006KT 040V110 9999 NCD 21/15 Q1021 NOSIG
08:25
V
19 °C 10 km+ - 060° 060° 5 kt METAR EHGG 120625Z AUTO 06005KT 030V090 9999 NCD 19/15 Q1021 NOSIG
07:55
V
18 °C 10 km+ - 050° 050° 5 kt METAR EHGG 120555Z AUTO 05005KT 9999 FEW015CB 18/15 Q1021 NOSIG
07:25
V
17 °C 10 km+ - 060° 060° 6 kt METAR EHGG 120525Z AUTO 06006KT 9999 NCD 17/15 Q1020 NOSIG
06:55
V
15 °C 10 km+ - 050° 050° 4 kt METAR EHGG 120455Z AUTO 05004KT 9999 NCD 15/14 Q1020 NOSIG
06:25
V
14 °C 10 km+ - 060° 060° 5 kt METAR EHGG 120425Z AUTO 06005KT 9999 NCD 14/13 Q1020 NOSIG
05:55
V
15 °C 10 km+ - 060° 060° 5 kt METAR EHGG 120355Z AUTO 06005KT 9999 NCD 15/14 Q1021
05:25
V
16 °C 10 km+ - 070° 070° 5 kt METAR EHGG 120325Z AUTO 07005KT 9999 NCD 16/14 Q1021
04:55
V
15 °C 10 km+ - 060° 060° 5 kt METAR EHGG 120255Z AUTO 06005KT 9999 NCD 15/14 Q1021
04:25
V
16 °C 10 km+ - 050° 050° 4 kt METAR EHGG 120225Z AUTO 05004KT 9999 NCD 16/14 Q1021
03:55
V
15 °C 10 km+ - 040° 040° 4 kt METAR EHGG 120155Z AUTO 04004KT 9999 NCD 15/14 Q1021
03:25
V
15 °C 10 km+ - 040° 040° 5 kt METAR EHGG 120125Z AUTO 04005KT 9999 NCD 15/14 Q1021
02:55
V
16 °C 10 km+ - 040° 040° 4 kt METAR EHGG 120055Z AUTO 04004KT 9999 NCD 16/14 Q1021
02:25
V
16 °C 10 km+ - 040° 040° 4 kt METAR EHGG 120025Z AUTO 04004KT 9999 NCD 16/14 Q1021
01:55
V
16 °C 10 km+ - 040° 040° 4 kt METAR EHGG 112355Z AUTO 04004KT 9999 NCD 16/15 Q1021
01:25
V
17 °C 10 km+ - 050° 050° 3 kt METAR EHGG 112325Z AUTO 05003KT 9999 NCD 17/15 Q1021
00:55
V
18 °C 10 km+ - 040° 040° 5 kt METAR EHGG 112255Z AUTO 04005KT 9999 NCD 18/15 Q1021
00:25
V
18 °C 10 km+ - 040° 040° 4 kt METAR EHGG 112225Z AUTO 04004KT 9999 NCD 18/15 Q1022

11. August 2022

Uhrzeit Code Wetter Temp. Sichtweite Wolkendecke Wind METAR/SPECI
23:55
V
19 °C 10 km+ - 040° 040° 5 kt METAR EHGG 112155Z AUTO 04005KT 9999 NCD 19/15 Q1021
23:25
V
20 °C 10 km+ - 040° 040° 5 kt METAR EHGG 112125Z AUTO 04005KT 9999 NCD 20/14 Q1022
22:55
V
20 °C 10 km+ - 040° 040° 5 kt METAR EHGG 112055Z AUTO 04005KT 9999 NCD 20/14 Q1021
22:25
V
21 °C 10 km+ - 040° 040° 6 kt METAR EHGG 112025Z AUTO 04006KT 9999 NCD 21/14 Q1021 NOSIG
21:55
V
22 °C 10 km+ - 040° 040° 6 kt METAR EHGG 111955Z AUTO 04006KT 9999 NCD 22/14 Q1021 NOSIG
21:25
V
23 °C 10 km+ - 030° 030° 5 kt METAR EHGG 111925Z AUTO 03005KT 9999 NCD 23/14 Q1021 NOSIG
20:55
V
24 °C 10 km+ - 030° 030° 7 kt METAR EHGG 111855Z AUTO 03007KT 360V060 9999 NCD 24/14 Q1021 NOSIG
20:25
V
25 °C 10 km+ - 030° 030° 8 kt METAR EHGG 111825Z AUTO 03008KT 350V050 9999 NCD 25/14 Q1021 NOSIG
19:55
V
26 °C 10 km+ - 020° 020° 9 kt METAR EHGG 111755Z AUTO 02009KT 350V060 9999 NCD 26/14 Q1021 NOSIG
19:25
V
27 °C 10 km+ - 010° 010° 8 kt METAR EHGG 111725Z AUTO 01008KT 340V050 9999 NCD 27/14 Q1021 NOSIG
18:55
V
27 °C 10 km+ - 020° 020° 9 kt METAR EHGG 111655Z AUTO 02009KT 350V060 9999 NCD 27/13 Q1021 NOSIG
18:25
V
28 °C 10 km+ - 030° 030° 10 kt METAR EHGG 111625Z AUTO 03010KT 9999 NCD 28/13 Q1021 NOSIG
17:55
V
28 °C 10 km+ - 040° 040° 10 kt METAR EHGG 111555Z AUTO 04010KT 010V070 9999 NCD 28/12 Q1021 NOSIG
17:25
V
29 °C 10 km+ - 040° 040° 11 kt METAR EHGG 111525Z AUTO 04011KT 360V080 9999 NCD 29/12 Q1022 NOSIG
16:55
V
29 °C 10 km+ - 040° 040° 11 kt METAR EHGG 111455Z AUTO 04011KT 010V080 9999 NCD 29/11 Q1022 NOSIG
Ältere Daten

Wir und Dritte verfolgen dein Internetverhalten auf unserer Website mit Cookies. Wenn du fortfährst, gehen wir davon aus, dass du mit unserer Cookie-Richtlinie einverstanden bist. Mehr erfahren